createdAt,value
2023-01-27T00:01:41.579Z,99666.69
2023-01-27T00:04:08.913Z,99665.63
2023-01-27T00:06:36.268Z,99667.61
2023-01-27T00:09:03.344Z,99663.41
2023-01-27T00:11:48.858Z,99663.30
2023-01-27T00:14:16.103Z,99661.88
2023-01-27T00:16:43.339Z,99664.69
2023-01-27T00:19:10.478Z,99662.90
2023-01-27T00:21:55.797Z,99661.65
2023-01-27T00:24:37.665Z,99661.48
2023-01-27T00:27:08.407Z,99657.09
2023-01-27T00:29:36.390Z,99659.36
2023-01-27T00:32:22.576Z,99658.92
2023-01-27T00:34:49.599Z,99662.15
2023-01-27T00:37:16.609Z,99660.66
2023-01-27T00:39:43.289Z,99657.27
2023-01-27T00:42:10.331Z,99656.02
2023-01-27T00:44:37.315Z,99659.88
2023-01-27T00:47:04.760Z,99657.54
2023-01-27T00:49:31.701Z,99655.23
2023-01-27T00:51:58.659Z,99654.73
2023-01-27T00:54:25.590Z,99653.48
2023-01-27T00:56:52.372Z,99650.09
2023-01-27T00:59:19.306Z,99646.71
2023-01-27T01:01:46.686Z,99650.51
2023-01-27T01:04:13.968Z,99648.88
2023-01-27T01:06:40.918Z,99651.09
2023-01-27T02:02:15.168Z,99617.70
2023-01-27T02:04:54.402Z,99617.08
2023-01-27T02:07:36.402Z,99613.16
2023-01-27T02:10:04.324Z,99609.89
2023-01-27T02:12:37.977Z,99614.08
2023-01-27T02:15:18.272Z,99609.23
2023-01-27T02:17:46.907Z,99599.98
2023-01-27T02:20:23.456Z,99597.41
2023-01-27T03:12:46.730Z,99596.86
2023-01-27T04:03:43.059Z,99553.50
2023-01-27T04:06:34.546Z,99550.69
2023-01-27T04:09:02.723Z,99548.95
2023-01-27T04:11:48.638Z,99547.63
2023-01-27T04:14:16.202Z,99542.80
2023-01-27T04:16:43.635Z,99543.53
2023-01-27T04:19:11.427Z,99543.77
2023-01-27T04:21:38.577Z,99541.48
2023-01-27T04:24:08.150Z,99539.77
2023-01-27T04:26:35.168Z,99542.17
2023-01-27T04:29:03.559Z,99542.58
2023-01-27T04:31:31.853Z,99539.48
2023-01-27T04:33:58.933Z,99539.27
2023-01-27T04:36:25.730Z,99534.71
2023-01-27T04:38:52.606Z,99532.48
2023-01-27T04:41:19.332Z,99531.23
2023-01-27T04:43:46.057Z,99528.39
2023-01-27T04:46:12.992Z,99523.08
2023-01-27T04:48:39.961Z,99524.14
2023-01-27T04:51:07.189Z,99521.40
2023-01-27T04:53:34.241Z,99519.28
2023-01-27T04:56:04.995Z,99514.95
2023-01-27T04:58:31.852Z,99509.35
2023-01-27T05:00:59.439Z,99506.84
2023-01-27T05:03:29.382Z,99505.13
2023-01-27T05:05:56.270Z,99502.70
2023-01-27T05:08:23.357Z,99504.52
2023-01-27T05:10:51.937Z,99508.60
2023-01-27T05:13:18.789Z,99507.18
2023-01-27T05:15:45.863Z,99504.88
2023-01-27T05:18:12.919Z,99500.90
2023-01-27T05:20:39.500Z,99501.94
2023-01-27T05:23:25.824Z,99496.79
2023-01-27T05:25:52.741Z,99500.45
2023-01-27T05:28:21.585Z,99502.43
2023-01-27T05:30:48.367Z,99502.92
2023-01-27T05:33:15.246Z,99503.41
2023-01-27T05:35:43.724Z,99504.33
2023-01-27T05:38:13.876Z,99505.35
2023-01-27T05:40:44.859Z,99504.80
2023-01-27T05:43:15.010Z,99503.17
2023-01-27T05:45:41.641Z,99507.27
2023-01-27T05:48:08.572Z,99504.95
2023-01-27T05:50:35.597Z,99504.16
2023-01-27T05:53:05.489Z,99503.02
2023-01-27T05:55:32.310Z,99496.52
2023-01-27T05:57:59.365Z,99497.21
2023-01-27T06:00:26.541Z,99498.65
2023-01-27T06:02:53.762Z,99499.98
2023-01-27T06:05:20.698Z,99501.10
2023-01-27T06:07:49.701Z,99500.80
2023-01-27T06:10:17.327Z,99500.21
2023-01-27T06:12:44.087Z,99505.04
2023-01-27T06:15:11.671Z,99510.50
2023-01-27T06:17:38.528Z,99503.21
2023-01-27T06:20:05.915Z,99503.21
2023-01-27T06:22:34.978Z,99505.22
2023-01-27T06:25:01.922Z,99503.95
2023-01-27T06:27:30.788Z,99509.30
2023-01-27T06:29:57.708Z,99509.31
2023-01-27T06:32:24.701Z,99508.89
2023-01-27T06:34:51.473Z,99504.03
2023-01-27T06:37:26.289Z,99501.45
2023-01-27T06:40:13.345Z,99499.89
2023-01-27T07:01:00.118Z,99492.40
2023-01-27T07:03:28.247Z,99490.61
2023-01-27T07:05:54.970Z,99484.12
2023-01-27T07:08:23.281Z,99483.79
2023-01-27T07:10:50.561Z,99484.98
2023-01-27T07:13:20.891Z,99479.52
2023-01-27T07:15:56.544Z,99478.61
2023-01-27T07:18:24.531Z,99475.65
2023-01-27T07:20:51.505Z,99473.04
2023-01-27T07:23:18.767Z,99470.98
2023-01-27T07:25:46.141Z,99469.88
2023-01-27T07:28:13.397Z,99464.31
2023-01-27T07:31:03.450Z,99462.42
2023-01-27T07:33:31.976Z,99462.30
2023-01-27T07:35:59.547Z,99457.38
2023-01-27T07:38:47.327Z,99457.11
2023-01-27T07:41:41.301Z,99453.88
2023-01-27T07:44:24.628Z,99448.17
2023-01-27T07:46:51.488Z,99438.41
2023-01-27T07:49:18.510Z,99437.79
2023-01-27T07:51:45.520Z,99432.67
2023-01-27T07:54:12.280Z,99439.14
2023-01-27T07:56:39.281Z,99439.83
2023-01-27T07:59:06.434Z,99439.00
2023-01-27T08:01:33.789Z,99434.63
2023-01-27T08:04:01.046Z,99434.13
2023-01-27T08:13:13.574Z,99424.52
2023-01-27T08:15:40.945Z,99426.71
2023-01-27T08:18:10.075Z,99421.36
2023-01-27T08:20:37.916Z,99425.05
2023-01-27T08:26:08.164Z,99427.79
2023-01-27T08:28:43.235Z,99432.24
2023-01-27T08:31:15.791Z,99431.36
2023-01-27T08:33:55.446Z,99430.03
2023-01-27T08:36:24.108Z,99435.88
2023-01-27T08:38:51.077Z,99444.09
2023-01-27T08:41:23.273Z,99446.89
2023-01-27T08:43:50.696Z,99447.42
2023-01-27T08:46:23.552Z,99443.63
2023-01-27T08:48:51.379Z,99446.52
2023-01-27T09:03:01.521Z,99464.84
2023-01-27T09:05:29.598Z,99471.17
2023-01-27T09:07:56.673Z,99474.58
2023-01-27T09:10:25.858Z,99476.91
2023-01-27T09:12:52.744Z,99486.46
2023-01-27T09:15:19.748Z,99490.95
2023-01-27T09:17:48.022Z,99492.49
2023-01-27T09:20:22.892Z,99497.11
2023-01-27T09:22:49.706Z,99505.23
2023-01-27T09:25:17.439Z,99505.90
2023-01-27T09:27:49.006Z,99517.19
2023-01-27T09:30:16.347Z,99530.45
2023-01-27T09:32:43.337Z,99536.63
2023-01-27T09:35:10.475Z,99541.64
2023-01-27T09:37:52.101Z,99547.98
2023-01-27T09:40:39.395Z,99550.95
2023-01-27T09:43:28.084Z,99556.60
2023-01-27T09:46:16.805Z,99565.45
2023-01-27T09:49:05.225Z,99579.08
2023-01-27T09:51:43.034Z,99578.39
2023-01-27T09:54:34.024Z,99576.08
2023-01-27T09:57:24.683Z,99581.96
2023-01-27T10:00:16.541Z,99584.86
2023-01-27T10:03:02.684Z,99595.89
2023-01-27T10:05:59.075Z,99612.92
2023-01-27T10:08:44.285Z,99622.86
2023-01-27T10:11:19.546Z,99634.98
2023-01-27T10:13:58.123Z,99644.85
2023-01-27T10:16:40.609Z,99657.75
2023-01-27T10:19:31.984Z,99671.15
2023-01-27T10:22:14.793Z,99676.99
2023-01-27T10:25:18.103Z,99686.92
2023-01-27T10:27:47.427Z,99684.20
2023-01-27T10:30:21.348Z,99690.95
2023-01-27T10:33:05.995Z,99695.61
2023-01-27T10:35:48.135Z,99700.90
2023-01-27T10:38:33.368Z,99705.16
2023-01-27T10:41:18.166Z,99703.22
2023-01-27T10:43:55.746Z,99713.95
2023-01-27T10:46:35.408Z,99713.83
2023-01-27T10:49:26.723Z,99717.88
2023-01-27T10:52:12.193Z,99721.58
2023-01-27T10:54:44.554Z,99728.98
2023-01-27T10:57:39.645Z,99732.04
2023-01-27T11:03:40.588Z,99738.20
2023-01-27T11:06:15.800Z,99736.39
2023-01-27T11:08:50.330Z,99740.42
2023-01-27T11:11:43.289Z,99741.61
2023-01-27T11:14:23.405Z,99741.38
2023-01-27T11:16:53.936Z,99735.14
2023-01-27T11:19:30.317Z,99732.94
2023-01-27T11:22:07.056Z,99734.86
2023-01-27T11:24:49.423Z,99732.15
2023-01-27T11:27:26.373Z,99738.48
2023-01-27T11:30:04.153Z,99739.15
2023-01-27T11:32:30.925Z,99743.41
2023-01-27T11:35:10.708Z,99741.63
2023-01-27T11:37:44.335Z,99743.95
2023-01-27T11:40:22.291Z,99740.48
2023-01-27T11:42:51.910Z,99704.67
2023-01-27T11:45:20.711Z,99668.30
2023-01-27T11:47:51.487Z,99655.89
2023-01-27T11:50:26.844Z,99661.30
2023-01-27T11:53:08.873Z,99683.66
2023-01-27T11:56:01.915Z,99703.39
2023-01-27T11:58:40.487Z,99715.30
2023-01-27T12:01:17.649Z,99730.60
2023-01-27T12:04:06.454Z,99744.95
2023-01-27T12:07:02.822Z,99754.92
2023-01-27T12:09:40.941Z,99763.42
2023-01-27T12:12:14.193Z,99767.11
2023-01-27T12:14:57.291Z,99767.84
2023-01-27T12:17:47.620Z,99772.10
2023-01-27T12:20:20.877Z,99776.63
2023-01-27T12:22:58.418Z,99781.45
2023-01-27T12:25:27.684Z,99791.81
2023-01-27T12:28:04.716Z,99801.46
2023-01-27T12:30:38.957Z,99812.45
2023-01-27T12:33:12.713Z,99822.13
2023-01-27T12:35:41.112Z,99826.20
2023-01-27T12:38:20.571Z,99827.71
2023-01-27T12:40:52.397Z,99838.42
2023-01-27T12:43:20.373Z,99843.81
2023-01-27T12:46:02.459Z,99851.38
2023-01-27T12:48:33.932Z,99850.86
2023-01-27T12:51:16.259Z,99850.48
2023-01-27T12:53:43.662Z,99853.25
2023-01-27T12:56:17.922Z,99861.73
2023-01-27T12:58:54.158Z,99863.52
2023-01-27T13:01:26.642Z,99867.32
2023-01-27T13:04:06.640Z,99871.80
2023-01-27T13:06:43.014Z,99874.19
2023-01-27T13:37:06.022Z,99891.78
2023-01-27T13:40:00.649Z,99884.04
2023-01-27T13:43:12.110Z,99890.62
2023-01-27T13:45:44.263Z,99888.52
2023-01-27T13:48:35.084Z,99891.23
2023-01-27T13:51:13.182Z,99891.85
2023-01-27T13:53:40.880Z,99896.57
2023-01-27T13:56:27.645Z,99897.66
2023-01-27T13:59:13.027Z,99896.60
2023-01-27T14:01:49.200Z,99893.73
2023-01-27T14:04:53.928Z,99895.67
2023-01-27T14:07:50.829Z,99897.69
2023-01-27T14:10:40.572Z,99896.91
2023-01-27T14:13:45.327Z,99892.38
2023-01-27T14:16:12.194Z,99890.66
2023-01-27T14:18:51.747Z,99886.60
2023-01-27T14:21:42.927Z,99884.69
2023-01-27T14:24:28.473Z,99880.89
2023-01-27T14:27:13.949Z,99883.20
2023-01-27T14:29:53.308Z,99880.33
2023-01-27T14:32:38.681Z,99879.96
2023-01-27T14:35:22.763Z,99878.52
2023-01-27T14:38:02.612Z,99882.11
2023-01-27T14:41:02.036Z,99880.87
2023-01-27T14:43:44.388Z,99877.73
2023-01-27T14:46:24.461Z,99881.91
2023-01-27T14:49:23.675Z,99879.60
2023-01-27T14:51:56.915Z,99874.19
2023-01-27T14:54:39.196Z,99873.52
2023-01-27T14:57:32.664Z,99870.94
2023-01-27T15:00:14.269Z,99876.99
2023-01-27T15:02:58.784Z,99876.47
2023-01-27T15:05:43.732Z,99870.48
2023-01-27T15:08:33.452Z,99866.75
2023-01-27T15:11:18.677Z,99863.19
2023-01-27T15:14:11.869Z,99855.46
2023-01-27T15:17:03.672Z,99851.44
2023-01-27T15:19:39.424Z,99851.77
2023-01-27T15:22:50.801Z,99848.10
2023-01-27T15:25:30.376Z,99846.02
2023-01-27T15:27:58.196Z,99849.21
2023-01-27T15:30:34.208Z,99850.77
2023-01-27T15:33:01.116Z,99848.45
2023-01-27T15:35:33.977Z,99852.77
2023-01-27T15:38:14.646Z,99854.19
2023-01-27T15:41:04.508Z,99860.05
2023-01-27T15:43:35.953Z,99858.92
2023-01-27T15:46:26.879Z,99858.18
2023-01-27T15:48:55.757Z,99852.86
2023-01-27T15:51:23.944Z,99853.09
2023-01-27T15:53:55.503Z,99854.09
2023-01-27T15:56:43.727Z,99850.48
2023-01-27T15:59:15.755Z,99842.00
2023-01-27T16:01:42.990Z,99837.34
2023-01-27T16:04:09.670Z,99830.11
2023-01-27T16:06:46.453Z,99821.48
2023-01-27T16:09:40.710Z,99819.27
2023-01-27T16:12:23.281Z,99811.52
2023-01-27T16:15:09.943Z,99803.82
2023-01-27T16:18:04.006Z,99798.79
2023-01-27T16:20:40.193Z,99792.61
2023-01-27T16:23:22.610Z,99791.31
2023-01-27T16:26:07.896Z,99781.41
2023-01-27T16:28:45.622Z,99779.83
2023-01-27T16:31:23.335Z,99778.90
2023-01-27T16:34:02.813Z,99772.40
2023-01-27T16:36:32.247Z,99772.43
2023-01-27T16:39:05.458Z,99768.73
2023-01-27T16:41:39.641Z,99765.13
2023-01-27T16:44:41.443Z,99766.64
2023-01-27T16:47:27.519Z,99764.66
2023-01-27T16:49:59.006Z,99765.79
2023-01-27T16:52:41.137Z,99760.03
2023-01-27T16:55:23.241Z,99754.13
2023-01-27T16:57:51.929Z,99751.61
2023-01-27T17:00:48.609Z,99750.15
2023-01-27T17:03:42.180Z,99745.59
2023-01-27T17:06:51.231Z,99743.87
2023-01-27T17:09:37.913Z,99742.29
2023-01-27T17:12:05.234Z,99742.05
2023-01-27T17:14:42.005Z,99740.73
2023-01-27T17:17:18.846Z,99741.13
2023-01-27T17:19:50.305Z,99739.34
2023-01-27T17:22:34.194Z,99740.49
2023-01-27T17:25:06.998Z,99736.95
2023-01-27T17:27:46.297Z,99736.57
2023-01-27T17:30:24.837Z,99735.94
2023-01-27T17:32:58.618Z,99740.64
2023-01-27T17:35:32.798Z,99738.59
2023-01-27T17:38:14.992Z,99736.41
2023-01-27T17:40:49.695Z,99740.52
2023-01-27T17:43:24.072Z,99745.16
2023-01-27T17:46:21.113Z,99733.07
2023-01-27T17:48:59.498Z,99738.34
2023-01-27T17:51:37.787Z,99734.17
2023-01-27T17:54:19.532Z,99732.45
2023-01-27T17:56:49.572Z,99737.58
2023-01-27T17:59:20.255Z,99733.47
2023-01-27T18:01:51.237Z,99732.77
2023-01-27T18:04:18.601Z,99739.09
2023-01-27T18:06:47.023Z,99734.27
2023-01-27T18:09:20.695Z,99733.92
2023-01-27T18:15:58.796Z,99737.95
2023-01-27T18:18:35.266Z,99738.02
2023-01-27T18:21:03.498Z,99735.31
2023-01-27T18:23:35.433Z,99740.23
2023-01-27T18:26:04.038Z,99745.78
2023-01-27T18:32:42.687Z,99747.14
2023-01-27T18:35:32.029Z,99751.44
2023-01-27T18:38:18.322Z,99759.86
2023-01-27T18:40:45.989Z,99759.06
2023-01-27T18:43:13.156Z,99759.96
2023-01-27T18:45:44.538Z,99760.71
2023-01-27T18:48:16.237Z,99761.52
2023-01-27T18:51:07.976Z,99762.08
2023-01-27T18:53:52.645Z,99763.23
2023-01-27T18:56:19.661Z,99764.64
2023-01-27T18:58:46.975Z,99768.01
2023-01-27T19:01:22.028Z,99770.34
2023-01-27T19:03:57.336Z,99766.26
2023-01-27T19:06:31.054Z,99770.83
2023-01-27T19:08:58.217Z,99769.06
2023-01-27T19:11:24.958Z,99770.95
2023-01-27T19:13:54.686Z,99770.79
2023-01-27T19:16:26.135Z,99772.16
2023-01-27T19:18:55.790Z,99768.31
2023-01-27T19:21:22.554Z,99769.84
2023-01-27T19:23:49.644Z,99768.41
2023-01-27T19:26:19.958Z,99769.73
2023-01-27T19:28:50.999Z,99773.46
2023-01-27T19:31:23.285Z,99771.11
2023-01-27T19:33:50.487Z,99770.42
2023-01-27T19:36:22.744Z,99773.55
2023-01-27T19:38:57.098Z,99775.38
2023-01-27T19:41:23.812Z,99766.89
2023-01-27T19:43:51.059Z,99767.38
2023-01-27T19:46:21.658Z,99766.30
2023-01-27T19:48:51.719Z,99770.59
2023-01-27T19:51:19.443Z,99779.20
2023-01-27T19:53:48.558Z,99777.36
2023-01-27T19:56:23.026Z,99780.33
2023-01-27T19:58:52.006Z,99784.35
2023-01-27T20:01:20.211Z,99781.42
2023-01-27T20:03:52.760Z,99788.42
2023-01-27T20:06:25.166Z,99787.42
2023-01-27T20:08:54.411Z,99788.21
2023-01-27T20:11:23.450Z,99796.53
2023-01-27T20:13:52.576Z,99797.02
2023-01-27T20:16:25.822Z,99796.10
2023-01-27T20:18:53.436Z,99800.09
2023-01-27T20:21:20.578Z,99799.70
2023-01-27T20:23:47.882Z,99801.34
2023-01-27T20:26:15.687Z,99806.31
2023-01-27T20:28:43.113Z,99810.25
2023-01-27T20:31:15.949Z,99807.04
2023-01-27T20:33:51.920Z,99810.31
2023-01-27T20:36:33.986Z,99812.36
2023-01-27T20:39:00.891Z,99806.10
2023-01-27T20:41:27.684Z,99808.89
2023-01-27T20:44:02.318Z,99806.64
2023-01-27T20:46:29.728Z,99802.58
2023-01-27T20:48:58.390Z,99804.36
2023-01-27T20:51:25.552Z,99803.17
2023-01-27T20:53:52.912Z,99805.39
2023-01-27T20:56:23.098Z,99799.95
2023-01-27T20:58:50.460Z,99793.17
2023-01-27T21:01:24.668Z,99787.89
2023-01-27T21:03:52.137Z,99790.80
2023-01-27T21:06:20.919Z,99790.73
2023-01-27T21:08:48.842Z,99791.61
2023-01-27T21:11:17.895Z,99789.66
2023-01-27T21:13:44.998Z,99790.37
2023-01-27T21:16:12.505Z,99789.25
2023-01-27T21:18:39.334Z,99788.36
2023-01-27T21:21:06.373Z,99788.56
2023-01-27T21:23:34.169Z,99780.57
2023-01-27T21:26:08.476Z,99786.30
2023-01-27T21:28:35.434Z,99786.70
2023-01-27T21:31:06.913Z,99787.17
2023-01-27T21:33:35.415Z,99784.77
2023-01-27T21:36:02.902Z,99783.87
2023-01-27T21:38:32.638Z,99779.84
2023-01-27T21:41:09.279Z,99777.16
2023-01-27T21:43:55.587Z,99773.15
2023-01-27T21:46:25.365Z,99775.30
2023-01-27T21:48:52.135Z,99774.39
2023-01-27T21:51:21.180Z,99769.29
2023-01-27T21:53:47.654Z,99771.52
2023-01-27T21:56:16.753Z,99771.26
2023-01-27T21:58:43.236Z,99767.81
2023-01-27T22:01:10.489Z,99770.03
2023-01-27T22:03:39.769Z,99768.77
2023-01-27T22:06:07.771Z,99767.91
2023-01-27T22:08:34.857Z,99767.29
2023-01-27T22:11:05.371Z,99767.85
2023-01-27T22:13:32.462Z,99760.98
2023-01-27T22:16:03.242Z,99757.45
2023-01-27T22:18:33.014Z,99749.48
2023-01-27T22:21:05.292Z,99749.26
2023-01-27T22:23:32.208Z,99749.72
2023-01-27T22:25:58.866Z,99746.52
2023-01-27T22:28:26.332Z,99743.41
2023-01-27T22:30:59.522Z,99746.91
2023-01-27T22:33:26.161Z,99743.45
2023-01-27T22:36:07.415Z,99746.36
2023-01-27T22:38:38.423Z,99742.85
2023-01-27T22:41:05.187Z,99744.42
2023-01-27T22:43:32.016Z,99741.95
2023-01-27T22:46:03.112Z,99742.11
2023-01-27T22:48:33.406Z,99741.35
2023-01-27T22:51:05.936Z,99743.10
2023-01-27T22:53:32.937Z,99740.85
2023-01-27T22:56:01.781Z,99739.81
2023-01-27T22:58:29.734Z,99741.19
2023-01-27T23:01:05.389Z,99738.88
2023-01-27T23:03:32.260Z,99736.84
2023-01-27T23:06:04.372Z,99738.52
2023-01-27T23:08:32.661Z,99735.16
2023-01-27T23:11:00.918Z,99730.54
2023-01-27T23:13:28.800Z,99733.31
2023-01-27T23:15:55.801Z,99727.17
2023-01-27T23:18:22.706Z,99729.71
2023-01-27T23:20:49.609Z,99726.55
2023-01-27T23:23:18.559Z,99727.42
2023-01-27T23:25:46.885Z,99727.10
2023-01-27T23:28:15.948Z,99732.55
2023-01-27T23:30:44.282Z,99726.27
2023-01-27T23:33:12.407Z,99724.45
2023-01-27T23:35:39.628Z,99721.16
2023-01-27T23:38:16.415Z,99715.29
2023-01-27T23:40:53.700Z,99714.05
2023-01-27T23:43:21.775Z,99711.64
2023-01-27T23:45:52.365Z,99715.77
2023-01-27T23:48:20.419Z,99716.82
2023-01-27T23:50:47.854Z,99719.17
2023-01-27T23:53:15.616Z,99720.26
2023-01-27T23:55:42.717Z,99723.26
2023-01-27T23:58:09.537Z,99722.15
